sensor_id;sensor_type;location;lat;lon;timestamp;temperature;humidity
9157;DHT22;4613;48.392;9.998;2023-05-23T00:01:26;17.00;99.90
9157;DHT22;4613;48.392;9.998;2023-05-23T00:04:16;16.70;99.90
9157;DHT22;4613;48.392;9.998;2023-05-23T00:07:10;16.70;99.90
9157;DHT22;4613;48.392;9.998;2023-05-23T00:09:59;16.60;99.90
9157;DHT22;4613;48.392;9.998;2023-05-23T00:12:48;16.70;99.90
9157;DHT22;4613;48.392;9.998;2023-05-23T00:15:38;16.90;99.90
9157;DHT22;4613;48.392;9.998;2023-05-23T00:18:29;17.10;99.90
9157;DHT22;4613;48.392;9.998;2023-05-23T00:21:19;17.20;99.90
9157;DHT22;4613;48.392;9.998;2023-05-23T00:24:09;17.60;99.90
9157;DHT22;4613;48.392;9.998;2023-05-23T00:26:58;17.50;99.90
9157;DHT22;4613;48.392;9.998;2023-05-23T00:29:47;17.60;99.90
9157;DHT22;4613;48.392;9.998;2023-05-23T00:32:36;17.50;99.90
9157;DHT22;4613;48.392;9.998;2023-05-23T00:35:27;17.60;99.90
9157;DHT22;4613;48.392;9.998;2023-05-23T00:38:16;17.30;99.90
9157;DHT22;4613;48.392;9.998;2023-05-23T00:41:05;17.20;99.90
9157;DHT22;4613;48.392;9.998;2023-05-23T00:43:55;16.80;99.90
9157;DHT22;4613;48.392;9.998;2023-05-23T00:46:50;17.10;99.90
9157;DHT22;4613;48.392;9.998;2023-05-23T00:49:39;16.90;99.90
9157;DHT22;4613;48.392;9.998;2023-05-23T00:52:29;16.80;99.90
9157;DHT22;4613;48.392;9.998;2023-05-23T00:55:18;16.60;99.90
9157;DHT22;4613;48.392;9.998;2023-05-23T00:58:08;16.30;99.90
9157;DHT22;4613;48.392;9.998;2023-05-23T01:00:58;16.30;99.90
9157;DHT22;4613;48.392;9.998;2023-05-23T01:03:48;16.10;99.90
9157;DHT22;4613;48.392;9.998;2023-05-23T01:06:38;16.10;99.90
9157;DHT22;4613;48.392;9.998;2023-05-23T01:09:28;16.20;99.90
9157;DHT22;4613;48.392;9.998;2023-05-23T01:12:45;16.40;99.90
9157;DHT22;4613;48.392;9.998;2023-05-23T01:15:39;16.40;99.90
9157;DHT22;4613;48.392;9.998;2023-05-23T01:21:30;16.00;99.90
9157;DHT22;4613;48.392;9.998;2023-05-23T01:27:54;16.40;99.90
9157;DHT22;4613;48.392;9.998;2023-05-23T01:30:45;16.00;99.90
9157;DHT22;4613;48.392;9.998;2023-05-23T01:33:38;16.20;99.90
9157;DHT22;4613;48.392;9.998;2023-05-23T01:36:28;16.10;99.90
9157;DHT22;4613;48.392;9.998;2023-05-23T01:39:18;16.10;99.90
9157;DHT22;4613;48.392;9.998;2023-05-23T01:42:08;15.90;99.90
9157;DHT22;4613;48.392;9.998;2023-05-23T01:44:58;15.90;99.90
9157;DHT22;4613;48.392;9.998;2023-05-23T01:47:48;15.90;99.90
9157;DHT22;4613;48.392;9.998;2023-05-23T01:50:39;15.70;99.90
9157;DHT22;4613;48.392;9.998;2023-05-23T01:53:29;16.00;99.90
9157;DHT22;4613;48.392;9.998;2023-05-23T01:56:20;16.00;99.90
9157;DHT22;4613;48.392;9.998;2023-05-23T01:59:10;16.10;99.90
9157;DHT22;4613;48.392;9.998;2023-05-23T02:01:59;16.50;99.90
9157;DHT22;4613;48.392;9.998;2023-05-23T02:04:49;16.60;99.90
9157;DHT22;4613;48.392;9.998;2023-05-23T02:07:38;16.40;99.90
9157;DHT22;4613;48.392;9.998;2023-05-23T02:10:27;16.60;99.90
9157;DHT22;4613;48.392;9.998;2023-05-23T02:13:17;16.50;99.90
9157;DHT22;4613;48.392;9.998;2023-05-23T02:16:06;16.20;99.90
9157;DHT22;4613;48.392;9.998;2023-05-23T02:18:56;16.30;99.90
9157;DHT22;4613;48.392;9.998;2023-05-23T02:21:46;16.30;99.90
9157;DHT22;4613;48.392;9.998;2023-05-23T02:24:35;16.10;99.90
9157;DHT22;4613;48.392;9.998;2023-05-23T02:27:24;15.90;99.90
9157;DHT22;4613;48.392;9.998;2023-05-23T02:30:13;16.00;99.90
9157;DHT22;4613;48.392;9.998;2023-05-23T02:33:06;16.40;99.90
9157;DHT22;4613;48.392;9.998;2023-05-23T02:35:56;16.40;99.90
9157;DHT22;4613;48.392;9.998;2023-05-23T02:38:45;16.30;99.90
9157;DHT22;4613;48.392;9.998;2023-05-23T02:41:34;16.50;99.90
9157;DHT22;4613;48.392;9.998;2023-05-23T02:44:25;16.60;99.90
9157;DHT22;4613;48.392;9.998;2023-05-23T02:47:14;16.40;99.90
9157;DHT22;4613;48.392;9.998;2023-05-23T02:50:04;16.50;99.90
9157;DHT22;4613;48.392;9.998;2023-05-23T02:52:54;16.30;99.90
9157;DHT22;4613;48.392;9.998;2023-05-23T02:55:44;16.50;99.90
9157;DHT22;4613;48.392;9.998;2023-05-23T02:58:34;16.50;99.90
9157;DHT22;4613;48.392;9.998;2023-05-23T03:01:26;16.60;99.90
9157;DHT22;4613;48.392;9.998;2023-05-23T03:04:15;16.30;99.90
9157;DHT22;4613;48.392;9.998;2023-05-23T03:07:04;16.40;99.90
9157;DHT22;4613;48.392;9.998;2023-05-23T03:09:55;16.70;99.90
9157;DHT22;4613;48.392;9.998;2023-05-23T03:12:45;16.60;99.90
9157;DHT22;4613;48.392;9.998;2023-05-23T03:15:36;16.60;99.90
9157;DHT22;4613;48.392;9.998;2023-05-23T03:18:25;16.60;99.90
9157;DHT22;4613;48.392;9.998;2023-05-23T03:21:15;16.50;99.90
9157;DHT22;4613;48.392;9.998;2023-05-23T03:24:05;16.50;99.90
9157;DHT22;4613;48.392;9.998;2023-05-23T03:26:54;16.40;99.90
9157;DHT22;4613;48.392;9.998;2023-05-23T03:29:44;16.30;99.90
9157;DHT22;4613;48.392;9.998;2023-05-23T03:32:33;16.30;99.90
9157;DHT22;4613;48.392;9.998;2023-05-23T03:35:23;16.20;99.90
9157;DHT22;4613;48.392;9.998;2023-05-23T03:38:12;16.40;99.90
9157;DHT22;4613;48.392;9.998;2023-05-23T03:41:01;16.50;99.90
9157;DHT22;4613;48.392;9.998;2023-05-23T03:43:51;16.50;99.90
9157;DHT22;4613;48.392;9.998;2023-05-23T03:46:41;16.50;99.90
9157;DHT22;4613;48.392;9.998;2023-05-23T03:49:30;16.50;99.90
9157;DHT22;4613;48.392;9.998;2023-05-23T03:52:20;16.50;99.90
9157;DHT22;4613;48.392;9.998;2023-05-23T03:55:09;16.40;99.90
9157;DHT22;4613;48.392;9.998;2023-05-23T03:57:59;16.30;99.90
9157;DHT22;4613;48.392;9.998;2023-05-23T04:00:49;16.40;99.90
9157;DHT22;4613;48.392;9.998;2023-05-23T04:03:39;16.60;99.90
9157;DHT22;4613;48.392;9.998;2023-05-23T04:06:29;16.60;99.90
9157;DHT22;4613;48.392;9.998;2023-05-23T04:09:19;16.60;99.90
9157;DHT22;4613;48.392;9.998;2023-05-23T04:12:11;16.50;99.90
9157;DHT22;4613;48.392;9.998;2023-05-23T04:15:00;16.50;99.90
9157;DHT22;4613;48.392;9.998;2023-05-23T04:17:52;16.40;99.90
9157;DHT22;4613;48.392;9.998;2023-05-23T04:20:41;16.40;99.90
9157;DHT22;4613;48.392;9.998;2023-05-23T04:23:31;16.50;99.90
9157;DHT22;4613;48.392;9.998;2023-05-23T04:26:21;16.50;99.90
9157;DHT22;4613;48.392;9.998;2023-05-23T04:29:14;16.50;99.90
9157;DHT22;4613;48.392;9.998;2023-05-23T04:32:05;16.70;99.90
9157;DHT22;4613;48.392;9.998;2023-05-23T04:34:54;16.80;99.90
9157;DHT22;4613;48.392;9.998;2023-05-23T04:37:45;16.90;99.90
9157;DHT22;4613;48.392;9.998;2023-05-23T04:40:35;17.00;99.90
9157;DHT22;4613;48.392;9.998;2023-05-23T04:43:57;17.20;99.90
9157;DHT22;4613;48.392;9.998;2023-05-23T04:46:56;17.20;99.90
9157;DHT22;4613;48.392;9.998;2023-05-23T04:49:51;17.40;99.90
9157;DHT22;4613;48.392;9.998;2023-05-23T04:52:42;17.60;99.90
9157;DHT22;4613;48.392;9.998;2023-05-23T04:55:32;17.50;99.90
9157;DHT22;4613;48.392;9.998;2023-05-23T04:58:22;17.30;99.90
9157;DHT22;4613;48.392;9.998;2023-05-23T05:01:11;17.50;99.90
9157;DHT22;4613;48.392;9.998;2023-05-23T05:04:02;17.40;99.90
9157;DHT22;4613;48.392;9.998;2023-05-23T05:06:51;17.50;99.90
9157;DHT22;4613;48.392;9.998;2023-05-23T05:09:42;17.40;99.90
9157;DHT22;4613;48.392;9.998;2023-05-23T05:12:33;17.40;99.90
9157;DHT22;4613;48.392;9.998;2023-05-23T05:15:23;17.30;99.90
9157;DHT22;4613;48.392;9.998;2023-05-23T05:18:17;17.20;99.90
9157;DHT22;4613;48.392;9.998;2023-05-23T05:21:07;17.30;99.90
9157;DHT22;4613;48.392;9.998;2023-05-23T05:23:56;17.00;99.90
9157;DHT22;4613;48.392;9.998;2023-05-23T05:26:47;17.10;99.90
9157;DHT22;4613;48.392;9.998;2023-05-23T05:32:24;17.40;99.90
9157;DHT22;4613;48.392;9.998;2023-05-23T05:35:13;17.60;99.90
9157;DHT22;4613;48.392;9.998;2023-05-23T05:38:05;17.20;99.90
9157;DHT22;4613;48.392;9.998;2023-05-23T05:40:56;17.20;99.90
9157;DHT22;4613;48.392;9.998;2023-05-23T05:43:46;17.30;99.90
9157;DHT22;4613;48.392;9.998;2023-05-23T05:46:36;17.50;99.90
9157;DHT22;4613;48.392;9.998;2023-05-23T05:49:26;17.80;99.90
9157;DHT22;4613;48.392;9.998;2023-05-23T05:52:17;17.80;99.90
9157;DHT22;4613;48.392;9.998;2023-05-23T05:55:10;17.90;99.90
9157;DHT22;4613;48.392;9.998;2023-05-23T05:58:01;17.80;99.90
9157;DHT22;4613;48.392;9.998;2023-05-23T06:00:56;17.80;99.90
9157;DHT22;4613;48.392;9.998;2023-05-23T06:03:46;17.80;99.90
9157;DHT22;4613;48.392;9.998;2023-05-23T06:06:36;17.90;99.90
9157;DHT22;4613;48.392;9.998;2023-05-23T06:09:25;17.80;99.90
9157;DHT22;4613;48.392;9.998;2023-05-23T06:12:14;17.90;99.90
9157;DHT22;4613;48.392;9.998;2023-05-23T06:15:05;17.90;99.90
9157;DHT22;4613;48.392;9.998;2023-05-23T06:17:55;18.00;99.90
9157;DHT22;4613;48.392;9.998;2023-05-23T06:20:44;17.90;99.90
9157;DHT22;4613;48.392;9.998;2023-05-23T06:23:37;18.00;99.90
9157;DHT22;4613;48.392;9.998;2023-05-23T06:26:27;18.00;99.90
9157;DHT22;4613;48.392;9.998;2023-05-23T06:29:16;17.90;99.90
9157;DHT22;4613;48.392;9.998;2023-05-23T06:32:05;17.90;99.90
9157;DHT22;4613;48.392;9.998;2023-05-23T06:34:54;17.90;99.90
9157;DHT22;4613;48.392;9.998;2023-05-23T06:37:43;17.80;99.90
9157;DHT22;4613;48.392;9.998;2023-05-23T06:40:34;17.90;99.90
9157;DHT22;4613;48.392;9.998;2023-05-23T06:43:24;18.10;99.90
9157;DHT22;4613;48.392;9.998;2023-05-23T06:46:15;18.00;99.90
9157;DHT22;4613;48.392;9.998;2023-05-23T06:49:04;18.00;99.90
9157;DHT22;4613;48.392;9.998;2023-05-23T06:51:54;18.20;99.90
9157;DHT22;4613;48.392;9.998;2023-05-23T06:54:43;18.30;99.90
9157;DHT22;4613;48.392;9.998;2023-05-23T06:57:33;18.40;99.90
9157;DHT22;4613;48.392;9.998;2023-05-23T07:00:22;18.40;99.90
9157;DHT22;4613;48.392;9.998;2023-05-23T07:03:24;18.40;99.90
9157;DHT22;4613;48.392;9.998;2023-05-23T07:06:14;18.30;99.90
9157;DHT22;4613;48.392;9.998;2023-05-23T07:09:05;18.30;99.90
9157;DHT22;4613;48.392;9.998;2023-05-23T07:11:54;18.40;99.90
9157;DHT22;4613;48.392;9.998;2023-05-23T07:14:43;18.40;99.90
9157;DHT22;4613;48.392;9.998;2023-05-23T07:17:33;18.40;99.90
9157;DHT22;4613;48.392;9.998;2023-05-23T07:20:25;18.40;99.90
9157;DHT22;4613;48.392;9.998;2023-05-23T07:23:22;18.40;99.90
9157;DHT22;4613;48.392;9.998;2023-05-23T07:26:13;18.40;99.90
9157;DHT22;4613;48.392;9.998;2023-05-23T07:29:08;18.40;99.90
9157;DHT22;4613;48.392;9.998;2023-05-23T07:31:57;18.40;99.90
9157;DHT22;4613;48.392;9.998;2023-05-23T07:34:47;18.40;99.90
9157;DHT22;4613;48.392;9.998;2023-05-23T07:37:36;18.40;99.90
9157;DHT22;4613;48.392;9.998;2023-05-23T07:40:26;18.50;99.90
9157;DHT22;4613;48.392;9.998;2023-05-23T07:43:15;18.40;99.90
9157;DHT22;4613;48.392;9.998;2023-05-23T07:46:05;18.30;99.90
9157;DHT22;4613;48.392;9.998;2023-05-23T07:48:54;18.10;99.90
9157;DHT22;4613;48.392;9.998;2023-05-23T07:51:45;18.30;99.90
9157;DHT22;4613;48.392;9.998;2023-05-23T07:54:35;18.20;99.90
9157;DHT22;4613;48.392;9.998;2023-05-23T07:57:26;18.30;99.90
9157;DHT22;4613;48.392;9.998;2023-05-23T08:00:16;18.00;99.90
9157;DHT22;4613;48.392;9.998;2023-05-23T08:03:06;18.30;99.90
9157;DHT22;4613;48.392;9.998;2023-05-23T08:06:01;18.40;99.90
9157;DHT22;4613;48.392;9.998;2023-05-23T08:08:50;18.60;99.90
9157;DHT22;4613;48.392;9.998;2023-05-23T08:11:40;18.80;99.90
9157;DHT22;4613;48.392;9.998;2023-05-23T08:14:30;18.90;99.90
9157;DHT22;4613;48.392;9.998;2023-05-23T08:17:48;18.60;99.90
9157;DHT22;4613;48.392;9.998;2023-05-23T08:20:38;18.40;99.90
9157;DHT22;4613;48.392;9.998;2023-05-23T08:23:28;18.40;99.90
9157;DHT22;4613;48.392;9.998;2023-05-23T08:26:18;18.40;99.90
9157;DHT22;4613;48.392;9.998;2023-05-23T08:29:08;18.30;99.90
9157;DHT22;4613;48.392;9.998;2023-05-23T08:31:58;18.10;99.90
9157;DHT22;4613;48.392;9.998;2023-05-23T08:34:48;18.20;99.90
9157;DHT22;4613;48.392;9.998;2023-05-23T08:37:37;18.00;99.90
9157;DHT22;4613;48.392;9.998;2023-05-23T08:40:26;18.00;99.90
9157;DHT22;4613;48.392;9.998;2023-05-23T08:43:26;18.20;99.90
9157;DHT22;4613;48.392;9.998;2023-05-23T08:46:16;18.30;99.90
9157;DHT22;4613;48.392;9.998;2023-05-23T08:49:06;18.40;99.90
9157;DHT22;4613;48.392;9.998;2023-05-23T08:52:00;18.60;99.90
9157;DHT22;4613;48.392;9.998;2023-05-23T08:54:50;18.60;99.90
9157;DHT22;4613;48.392;9.998;2023-05-23T08:57:39;18.50;99.90
9157;DHT22;4613;48.392;9.998;2023-05-23T09:00:46;18.80;99.90
9157;DHT22;4613;48.392;9.998;2023-05-23T09:03:36;19.00;99.90
9157;DHT22;4613;48.392;9.998;2023-05-23T09:06:38;19.10;99.90
9157;DHT22;4613;48.392;9.998;2023-05-23T09:09:29;19.20;99.90
9157;DHT22;4613;48.392;9.998;2023-05-23T09:12:18;19.30;99.90
9157;DHT22;4613;48.392;9.998;2023-05-23T09:15:11;19.30;99.90
9157;DHT22;4613;48.392;9.998;2023-05-23T09:18:01;19.20;99.90
9157;DHT22;4613;48.392;9.998;2023-05-23T09:20:52;19.10;99.90
9157;DHT22;4613;48.392;9.998;2023-05-23T09:23:42;19.00;99.90
9157;DHT22;4613;48.392;9.998;2023-05-23T09:26:33;18.90;99.90
9157;DHT22;4613;48.392;9.998;2023-05-23T09:29:23;18.90;99.90
9157;DHT22;4613;48.392;9.998;2023-05-23T09:32:15;18.90;99.90
9157;DHT22;4613;48.392;9.998;2023-05-23T09:35:06;19.20;99.90
9157;DHT22;4613;48.392;9.998;2023-05-23T09:37:57;19.00;99.90
9157;DHT22;4613;48.392;9.998;2023-05-23T09:40:50;19.10;99.90
9157;DHT22;4613;48.392;9.998;2023-05-23T09:43:53;19.30;99.90
9157;DHT22;4613;48.392;9.998;2023-05-23T09:46:43;19.60;99.90
9157;DHT22;4613;48.392;9.998;2023-05-23T09:49:38;19.50;99.90
9157;DHT22;4613;48.392;9.998;2023-05-23T09:52:38;19.70;99.90
9157;DHT22;4613;48.392;9.998;2023-05-23T09:55:28;19.90;99.90
9157;DHT22;4613;48.392;9.998;2023-05-23T09:58:22;20.00;99.90
9157;DHT22;4613;48.392;9.998;2023-05-23T10:01:12;20.00;99.90
9157;DHT22;4613;48.392;9.998;2023-05-23T10:04:02;20.00;99.90
9157;DHT22;4613;48.392;9.998;2023-05-23T10:06:57;20.50;99.90
9157;DHT22;4613;48.392;9.998;2023-05-23T10:09:55;20.80;99.90
9157;DHT22;4613;48.392;9.998;2023-05-23T10:12:50;21.00;99.90
9157;DHT22;4613;48.392;9.998;2023-05-23T10:15:41;20.90;99.90
9157;DHT22;4613;48.392;9.998;2023-05-23T10:18:38;20.90;99.90
9157;DHT22;4613;48.392;9.998;2023-05-23T10:21:37;21.00;99.90
9157;DHT22;4613;48.392;9.998;2023-05-23T10:24:28;21.40;99.90
9157;DHT22;4613;48.392;9.998;2023-05-23T10:27:18;21.60;99.90
9157;DHT22;4613;48.392;9.998;2023-05-23T10:30:08;21.80;99.90
9157;DHT22;4613;48.392;9.998;2023-05-23T10:32:58;21.80;99.90
9157;DHT22;4613;48.392;9.998;2023-05-23T10:36:08;21.60;99.90
9157;DHT22;4613;48.392;9.998;2023-05-23T10:39:04;21.60;99.90
9157;DHT22;4613;48.392;9.998;2023-05-23T10:42:12;21.40;99.90
9157;DHT22;4613;48.392;9.998;2023-05-23T10:45:17;21.20;99.90
9157;DHT22;4613;48.392;9.998;2023-05-23T10:48:32;21.20;99.90
9157;DHT22;4613;48.392;9.998;2023-05-23T10:51:23;21.50;99.90
9157;DHT22;4613;48.392;9.998;2023-05-23T10:54:13;21.70;99.90
9157;DHT22;4613;48.392;9.998;2023-05-23T10:57:05;21.90;99.90
9157;DHT22;4613;48.392;9.998;2023-05-23T10:59:55;21.80;99.90
9157;DHT22;4613;48.392;9.998;2023-05-23T11:02:55;21.60;99.90
9157;DHT22;4613;48.392;9.998;2023-05-23T11:05:52;21.60;99.90
9157;DHT22;4613;48.392;9.998;2023-05-23T11:08:41;21.80;99.90
9157;DHT22;4613;48.392;9.998;2023-05-23T11:14:51;21.60;99.90
9157;DHT22;4613;48.392;9.998;2023-05-23T11:17:50;21.50;99.90
9157;DHT22;4613;48.392;9.998;2023-05-23T11:20:40;21.60;99.90
9157;DHT22;4613;48.392;9.998;2023-05-23T11:23:39;21.80;99.90
9157;DHT22;4613;48.392;9.998;2023-05-23T11:26:30;21.70;99.90
9157;DHT22;4613;48.392;9.998;2023-05-23T11:29:20;21.80;99.90
9157;DHT22;4613;48.392;9.998;2023-05-23T11:32:10;21.90;99.90
9157;DHT22;4613;48.392;9.998;2023-05-23T11:35:09;21.70;99.90
9157;DHT22;4613;48.392;9.998;2023-05-23T11:37:59;21.60;99.90
9157;DHT22;4613;48.392;9.998;2023-05-23T11:40:49;21.90;99.90
9157;DHT22;4613;48.392;9.998;2023-05-23T11:43:49;22.20;99.90
9157;DHT22;4613;48.392;9.998;2023-05-23T11:46:39;21.90;99.90
9157;DHT22;4613;48.392;9.998;2023-05-23T11:49:30;21.80;99.90
9157;DHT22;4613;48.392;9.998;2023-05-23T11:52:19;21.70;99.90
9157;DHT22;4613;48.392;9.998;2023-05-23T11:55:09;22.00;99.90
9157;DHT22;4613;48.392;9.998;2023-05-23T11:57:59;21.90;99.90
9157;DHT22;4613;48.392;9.998;2023-05-23T12:00:49;21.80;99.90
9157;DHT22;4613;48.392;9.998;2023-05-23T12:03:46;21.60;99.90
9157;DHT22;4613;48.392;9.998;2023-05-23T12:06:40;21.70;99.90
9157;DHT22;4613;48.392;9.998;2023-05-23T12:09:29;21.90;99.90
9157;DHT22;4613;48.392;9.998;2023-05-23T12:12:19;21.70;99.90
9157;DHT22;4613;48.392;9.998;2023-05-23T12:15:09;21.70;99.90
9157;DHT22;4613;48.392;9.998;2023-05-23T12:17:59;21.50;99.90
9157;DHT22;4613;48.392;9.998;2023-05-23T12:20:50;21.70;99.90
9157;DHT22;4613;48.392;9.998;2023-05-23T12:23:40;21.70;99.90
9157;DHT22;4613;48.392;9.998;2023-05-23T12:26:30;21.80;99.90
9157;DHT22;4613;48.392;9.998;2023-05-23T12:29:20;21.80;99.90
9157;DHT22;4613;48.392;9.998;2023-05-23T12:32:10;21.80;99.90
9157;DHT22;4613;48.392;9.998;2023-05-23T12:35:00;21.90;99.90
9157;DHT22;4613;48.392;9.998;2023-05-23T12:37:49;21.90;99.90
9157;DHT22;4613;48.392;9.998;2023-05-23T12:40:38;21.80;99.90
9157;DHT22;4613;48.392;9.998;2023-05-23T12:43:27;21.60;99.90
9157;DHT22;4613;48.392;9.998;2023-05-23T12:46:16;21.80;99.90
9157;DHT22;4613;48.392;9.998;2023-05-23T12:49:06;21.60;99.90
9157;DHT22;4613;48.392;9.998;2023-05-23T12:51:55;21.60;99.90
9157;DHT22;4613;48.392;9.998;2023-05-23T12:54:45;21.50;99.90
9157;DHT22;4613;48.392;9.998;2023-05-23T12:57:34;21.30;99.90
9157;DHT22;4613;48.392;9.998;2023-05-23T13:00:23;21.20;99.90
9157;DHT22;4613;48.392;9.998;2023-05-23T13:03:13;21.00;99.90
9157;DHT22;4613;48.392;9.998;2023-05-23T13:06:02;21.20;99.90
9157;DHT22;4613;48.392;9.998;2023-05-23T13:08:52;21.30;99.90
9157;DHT22;4613;48.392;9.998;2023-05-23T13:11:42;21.20;99.90
9157;DHT22;4613;48.392;9.998;2023-05-23T13:14:32;21.40;99.90
9157;DHT22;4613;48.392;9.998;2023-05-23T13:17:21;21.50;99.90
9157;DHT22;4613;48.392;9.998;2023-05-23T13:20:10;21.40;99.90
9157;DHT22;4613;48.392;9.998;2023-05-23T13:22:59;21.10;99.90
9157;DHT22;4613;48.392;9.998;2023-05-23T13:25:49;21.30;99.90
9157;DHT22;4613;48.392;9.998;2023-05-23T13:28:39;21.50;99.90
9157;DHT22;4613;48.392;9.998;2023-05-23T13:31:28;21.20;99.90
9157;DHT22;4613;48.392;9.998;2023-05-23T13:34:17;21.10;99.90
9157;DHT22;4613;48.392;9.998;2023-05-23T13:37:06;21.40;99.90
9157;DHT22;4613;48.392;9.998;2023-05-23T13:39:56;21.60;99.90
9157;DHT22;4613;48.392;9.998;2023-05-23T13:42:47;21.50;99.90
9157;DHT22;4613;48.392;9.998;2023-05-23T13:45:36;21.60;99.90
9157;DHT22;4613;48.392;9.998;2023-05-23T13:48:26;21.50;99.90
9157;DHT22;4613;48.392;9.998;2023-05-23T13:51:15;21.10;99.90
9157;DHT22;4613;48.392;9.998;2023-05-23T13:54:04;21.10;99.90
9157;DHT22;4613;48.392;9.998;2023-05-23T13:56:54;21.10;99.90
9157;DHT22;4613;48.392;9.998;2023-05-23T13:59:43;21.00;99.90
9157;DHT22;4613;48.392;9.998;2023-05-23T14:02:32;21.30;99.90
9157;DHT22;4613;48.392;9.998;2023-05-23T14:05:21;21.30;99.90
9157;DHT22;4613;48.392;9.998;2023-05-23T14:08:11;21.50;99.90
9157;DHT22;4613;48.392;9.998;2023-05-23T14:11:01;21.10;99.90
9157;DHT22;4613;48.392;9.998;2023-05-23T14:13:50;21.20;99.90
9157;DHT22;4613;48.392;9.998;2023-05-23T14:16:39;21.20;99.90
9157;DHT22;4613;48.392;9.998;2023-05-23T14:19:28;21.20;99.90
9157;DHT22;4613;48.392;9.998;2023-05-23T14:22:18;21.30;99.90
9157;DHT22;4613;48.392;9.998;2023-05-23T14:25:07;21.10;99.90
9157;DHT22;4613;48.392;9.998;2023-05-23T14:27:57;21.00;99.90
9157;DHT22;4613;48.392;9.998;2023-05-23T14:30:46;20.90;99.90
9157;DHT22;4613;48.392;9.998;2023-05-23T14:33:35;20.90;99.90
9157;DHT22;4613;48.392;9.998;2023-05-23T14:36:26;20.60;99.90
9157;DHT22;4613;48.392;9.998;2023-05-23T14:39:16;20.70;99.90
9157;DHT22;4613;48.392;9.998;2023-05-23T14:42:05;21.00;99.90
9157;DHT22;4613;48.392;9.998;2023-05-23T14:44:54;21.00;99.90
9157;DHT22;4613;48.392;9.998;2023-05-23T14:47:44;21.10;99.90
9157;DHT22;4613;48.392;9.998;2023-05-23T14:50:33;21.10;99.90
9157;DHT22;4613;48.392;9.998;2023-05-23T14:53:22;21.40;99.90
9157;DHT22;4613;48.392;9.998;2023-05-23T14:56:12;21.40;99.90
9157;DHT22;4613;48.392;9.998;2023-05-23T14:59:02;21.40;99.90
9157;DHT22;4613;48.392;9.998;2023-05-23T15:01:51;21.10;99.90
9157;DHT22;4613;48.392;9.998;2023-05-23T15:04:41;21.40;99.90
9157;DHT22;4613;48.392;9.998;2023-05-23T15:07:30;21.50;99.90
9157;DHT22;4613;48.392;9.998;2023-05-23T15:10:20;21.30;99.90
9157;DHT22;4613;48.392;9.998;2023-05-23T15:13:10;21.60;99.90
9157;DHT22;4613;48.392;9.998;2023-05-23T15:15:59;21.30;99.90
9157;DHT22;4613;48.392;9.998;2023-05-23T15:18:49;21.10;99.90
9157;DHT22;4613;48.392;9.998;2023-05-23T15:21:38;21.10;99.90
9157;DHT22;4613;48.392;9.998;2023-05-23T15:24:28;20.80;99.90
9157;DHT22;4613;48.392;9.998;2023-05-23T15:27:17;20.60;99.90
9157;DHT22;4613;48.392;9.998;2023-05-23T15:30:07;20.40;99.90
9157;DHT22;4613;48.392;9.998;2023-05-23T15:32:56;20.70;99.90
9157;DHT22;4613;48.392;9.998;2023-05-23T15:35:46;20.80;99.90
9157;DHT22;4613;48.392;9.998;2023-05-23T15:38:36;20.90;99.90
9157;DHT22;4613;48.392;9.998;2023-05-23T15:41:25;21.00;99.90
9157;DHT22;4613;48.392;9.998;2023-05-23T15:44:14;21.10;99.90
9157;DHT22;4613;48.392;9.998;2023-05-23T15:47:07;21.20;99.90
9157;DHT22;4613;48.392;9.998;2023-05-23T15:49:56;21.40;99.90
9157;DHT22;4613;48.392;9.998;2023-05-23T15:52:45;21.40;99.90
9157;DHT22;4613;48.392;9.998;2023-05-23T15:55:35;21.30;99.90
9157;DHT22;4613;48.392;9.998;2023-05-23T15:58:25;20.70;99.90
9157;DHT22;4613;48.392;9.998;2023-05-23T16:01:14;20.90;99.90
9157;DHT22;4613;48.392;9.998;2023-05-23T16:04:03;20.70;99.90
9157;DHT22;4613;48.392;9.998;2023-05-23T16:06:53;20.70;99.90
9157;DHT22;4613;48.392;9.998;2023-05-23T16:09:42;20.70;99.90
9157;DHT22;4613;48.392;9.998;2023-05-23T16:12:31;20.80;99.90
9157;DHT22;4613;48.392;9.998;2023-05-23T16:15:20;20.80;99.90
9157;DHT22;4613;48.392;9.998;2023-05-23T16:18:10;20.80;99.90
9157;DHT22;4613;48.392;9.998;2023-05-23T16:20:59;20.50;99.90
9157;DHT22;4613;48.392;9.998;2023-05-23T16:23:52;20.80;99.90
9157;DHT22;4613;48.392;9.998;2023-05-23T16:26:41;20.90;99.90
9157;DHT22;4613;48.392;9.998;2023-05-23T16:29:31;20.80;99.90
9157;DHT22;4613;48.392;9.998;2023-05-23T16:32:20;20.60;99.90
9157;DHT22;4613;48.392;9.998;2023-05-23T16:35:09;20.70;99.90
9157;DHT22;4613;48.392;9.998;2023-05-23T16:37:59;20.50;99.90
9157;DHT22;4613;48.392;9.998;2023-05-23T16:40:48;20.30;99.90
9157;DHT22;4613;48.392;9.998;2023-05-23T16:43:37;20.40;99.90
9157;DHT22;4613;48.392;9.998;2023-05-23T16:46:27;20.40;99.90
9157;DHT22;4613;48.392;9.998;2023-05-23T16:49:16;20.30;99.90
9157;DHT22;4613;48.392;9.998;2023-05-23T16:52:05;20.30;99.90
9157;DHT22;4613;48.392;9.998;2023-05-23T16:54:54;20.30;99.90
9157;DHT22;4613;48.392;9.998;2023-05-23T16:57:44;20.20;99.90
9157;DHT22;4613;48.392;9.998;2023-05-23T17:00:33;20.30;99.90
9157;DHT22;4613;48.392;9.998;2023-05-23T17:03:22;20.60;99.90
9157;DHT22;4613;48.392;9.998;2023-05-23T17:06:11;20.30;99.90
9157;DHT22;4613;48.392;9.998;2023-05-23T17:09:00;20.40;99.90
9157;DHT22;4613;48.392;9.998;2023-05-23T17:11:50;20.60;99.90
9157;DHT22;4613;48.392;9.998;2023-05-23T17:14:40;20.40;99.90
9157;DHT22;4613;48.392;9.998;2023-05-23T17:17:29;20.50;99.90
9157;DHT22;4613;48.392;9.998;2023-05-23T17:20:19;20.30;99.90
9157;DHT22;4613;48.392;9.998;2023-05-23T17:23:12;20.30;99.90
9157;DHT22;4613;48.392;9.998;2023-05-23T17:26:01;20.10;99.90
9157;DHT22;4613;48.392;9.998;2023-05-23T17:28:51;20.00;99.90
9157;DHT22;4613;48.392;9.998;2023-05-23T17:31:40;20.00;99.90
9157;DHT22;4613;48.392;9.998;2023-05-23T17:34:29;20.00;99.90
9157;DHT22;4613;48.392;9.998;2023-05-23T17:37:18;19.90;99.90
9157;DHT22;4613;48.392;9.998;2023-05-23T17:40:09;20.00;99.90
9157;DHT22;4613;48.392;9.998;2023-05-23T17:42:59;19.90;99.90
9157;DHT22;4613;48.392;9.998;2023-05-23T17:45:48;19.60;99.90
9157;DHT22;4613;48.392;9.998;2023-05-23T17:48:38;19.80;99.90
9157;DHT22;4613;48.392;9.998;2023-05-23T17:51:27;19.80;99.90
9157;DHT22;4613;48.392;9.998;2023-05-23T17:54:16;19.80;99.90
9157;DHT22;4613;48.392;9.998;2023-05-23T17:57:05;19.80;99.90
9157;DHT22;4613;48.392;9.998;2023-05-23T17:59:56;19.70;99.90
9157;DHT22;4613;48.392;9.998;2023-05-23T18:02:46;19.80;99.90
9157;DHT22;4613;48.392;9.998;2023-05-23T18:05:35;19.90;99.90
9157;DHT22;4613;48.392;9.998;2023-05-23T18:08:24;19.90;99.90
9157;DHT22;4613;48.392;9.998;2023-05-23T18:11:14;19.80;99.90
9157;DHT22;4613;48.392;9.998;2023-05-23T18:14:03;19.60;99.90
9157;DHT22;4613;48.392;9.998;2023-05-23T18:16:52;19.30;99.90
9157;DHT22;4613;48.392;9.998;2023-05-23T18:19:41;19.20;99.90
9157;DHT22;4613;48.392;9.998;2023-05-23T18:22:30;19.10;99.90
9157;DHT22;4613;48.392;9.998;2023-05-23T18:25:21;19.10;99.90
9157;DHT22;4613;48.392;9.998;2023-05-23T18:28:16;19.10;99.90
9157;DHT22;4613;48.392;9.998;2023-05-23T18:31:06;19.00;99.90
9157;DHT22;4613;48.392;9.998;2023-05-23T18:33:55;18.90;99.90
9157;DHT22;4613;48.392;9.998;2023-05-23T18:36:45;18.90;99.90
9157;DHT22;4613;48.392;9.998;2023-05-23T18:39:34;18.90;99.90
9157;DHT22;4613;48.392;9.998;2023-05-23T18:42:24;18.80;99.90
9157;DHT22;4613;48.392;9.998;2023-05-23T18:45:13;18.90;99.90
9157;DHT22;4613;48.392;9.998;2023-05-23T18:48:03;18.80;99.90